Latest Weather Observations for Albion Park

IDN60801

Issued at 1:03 am EDT Friday 24 March 2017 (issued every 30 minutes, with the page automatically refreshed every 10 minutes)

About weather observations | Map of weather stations | Latest weather observations for NSW | Other Formats
Station Details ID: 068241 Name: WOLLONGONG AIRPORT Lat: -34.56 Lon: 150.79 Height: 8.0 m
Data from the previous 72 hours. | See also: Recent months at Albion Park
Date/Time
EDT
Temp
°C
App
Temp
°C
Dew
Point
°C
Rel
Hum
%
Delta-T
°C
Wind Press
QNH
hPa
Press
MSL
hPa
Rain since
9am
mm
Dir  Spd
km/h
Gust
km/h
Spd
kts
Gust
kts
24/01:00am 18.5 19.2 17.9 96 0.4 WSW 11 15 6 8 1019.4 1019.4 3.0
24/12:40am 18.4 18.9 17.4 94 0.6 WSW 11 13 6 7 1019.5 1019.5 3.0
24/12:30am 18.6 19.4 17.4 93 0.7 SW 9 11 5 6 1019.4 1019.4 3.0
24/12:00am 18.9 19.4 17.4 91 0.9 SSW 11 15 6 8 1019.4 1019.4 3.0
 
Date/Time
EDT
Temp
°C
App
Temp
°C
Dew
Point
°C
Rel
Hum
%
Delta-T
°C
Wind Press
QNH
hPa
Press
MSL
hPa
Rain since
9am
mm
Dir  Spd
km/h
Gust
km/h
Spd
kts
Gust
kts
23/11:30pm 19.0 20.4 17.8 93 0.7 S 7 9 4 5 1019.7 1019.7 3.0
23/11:19pm 19.0 19.9 17.5 91 0.9 S 9 11 5 6 1019.6 1019.6 3.0
23/11:00pm 18.8 20.1 17.5 92 0.8 S 7 9 4 5 1019.5 1019.5 3.0
23/10:30pm 18.8 19.4 17.6 93 0.7 SSE 11 19 6 10 1019.6 1019.6 3.0
23/10:00pm 19.3 19.0 17.3 88 1.2 S 15 19 8 10 1019.5 1019.5 3.0
23/09:56pm 19.3 18.9 17.1 87 1.3 SSW 15 22 8 12 1019.4 1019.4 3.0
23/09:30pm 19.3 18.6 17.3 88 1.2 SW 17 24 9 13 1019.3 1019.3 3.0
23/09:00pm 19.3 18.9 17.1 87 1.3 SSW 15 22 8 12 1019.3 1019.3 3.0
23/08:30pm 19.5 20.4 18.3 93 0.7 WSW 11 17 6 9 1018.9 1018.9 2.8
23/08:00pm 19.2 19.5 17.9 92 0.8 SSW 13 19 7 10 1018.3 1018.3 2.8
23/07:30pm 19.5 20.6 18.0 91 0.9 SSW 9 15 5 8 1018.1 1018.1 2.8
23/07:00pm 19.4 20.7 18.4 94 0.6 S 9 13 5 7 1017.8 1017.8 2.8
23/06:30pm 19.6 20.9 18.4 93 0.7 SSE 9 11 5 6 1017.9 1017.9 2.8
23/06:00pm 19.8 21.3 18.8 94 0.6 SSW 9 13 5 7 1017.7 1017.7 2.6
23/05:30pm 20.0 21.6 19.2 95 0.5 SSW 9 13 5 7 1017.8 1017.8 2.4
23/05:00pm 19.8 20.4 18.6 93 0.7 S 13 17 7 9 1017.7 1017.7 2.2
23/04:30pm 20.0 21.3 19.2 95 0.5 SSE 11 17 6 9 1017.7 1017.7 1.8
23/04:00pm 20.0 21.6 19.2 95 0.5 SSE 9 13 5 7 1017.8 1017.8 1.8
23/03:30pm 20.1 22.2 19.3 95 0.5 SSE 7 11 4 6 1018.0 1018.0 1.2
23/03:23pm 20.2 21.9 19.4 95 0.5 SSE 9 11 5 6 1018.2 1018.2 1.0
23/03:08pm 20.3 21.9 19.1 93 0.8 SSE 9 13 5 7 1018.1 1018.1 0.6
23/03:00pm 20.4 21.5 18.9 91 0.9 SSE 11 13 6 7 1018.1 1018.1 0.2
23/02:30pm 20.8 22.5 18.4 86 1.5 SSE 7 11 4 6 1018.2 1018.2 0.0
23/02:00pm 21.3 21.7 18.1 82 2.0 SSE 13 17 7 9 1018.3 1018.3 0.0
23/01:30pm 21.6 22.0 18.2 81 2.1 SSW 13 20 7 11 1018.6 1018.6 0.0
23/01:00pm 22.3 21.8 17.9 76 2.7 SSW 17 24 9 13 1018.8 1018.8 0.0
23/12:30pm 22.2 21.5 17.3 74 3.0 SSW 17 28 9 15 1019.1 1019.1 0.0
23/12:00pm 22.7 21.9 18.0 75 2.9 S 19 26 10 14 1019.2 1019.2 0.0
23/11:30am 23.5 23.3 17.5 69 3.7 SSW 15 26 8 14 1019.2 1019.2 0.0
23/11:00am 21.9 21.5 17.1 74 2.9 SW 15 20 8 11 1019.2 1019.2 0.0
23/10:30am 21.7 20.9 17.1 75 2.8 SW 17 24 9 13 1019.4 1019.4 0.0
23/10:00am 21.6 20.3 17.2 76 2.7 SSW 20 32 11 17 1019.1 1019.1 0.0
23/09:30am 21.3 19.8 16.7 75 2.8 SSW 20 30 11 16 1019.1 1019.1 0.0
23/09:17am 21.5 20.8 17.3 77 2.6 SSW 17 26 9 14 1018.8 1018.8 0.0
23/09:00am 21.2 20.4 17.2 78 2.4 SSW 17 26 9 14 1018.8 1018.8 14.4
23/08:30am 20.7 20.7 17.1 80 2.2 SSW 13 20 7 11 1018.7 1018.7 14.4
23/08:00am 20.4 19.0 17.0 81 2.1 SW 20 30 11 16 1018.5 1018.5 14.4
23/07:32am 20.2 19.2 16.6 80 2.2 SSW 17 24 9 13 1018.4 1018.4 14.4
23/07:30am 20.2 19.2 16.6 80 2.2 SSW 17 24 9 13 1018.4 1018.4 14.4
23/07:00am 20.1 19.1 16.5 80 2.2 SW 17 24 9 13 1017.9 1017.9 14.4
23/06:39am 20.5 19.5 16.5 78 2.4 SW 17 33 9 18 1017.7 1017.7 14.4
23/06:30am 20.3 19.3 16.5 79 2.3 SSW 17 24 9 13 1017.5 1017.5 14.4
23/06:00am 20.4 19.0 16.6 79 2.3 SW 19 30 10 16 1017.2 1017.2 14.4
23/05:30am 20.2 18.9 16.8 81 2.1 SSW 19 32 10 17 1017.0 1017.0 14.4
23/05:15am 20.4 19.4 16.6 79 2.3 SSW 17 26 9 14 1017.1 1017.1 14.4
23/05:00am 20.6 19.4 17.0 80 2.2 SSW 19 28 10 15 1016.9 1016.9 14.4
23/04:30am 20.4 19.0 16.6 79 2.3 SSW 19 30 10 16 1016.7 1016.7 14.4
23/04:00am 20.6 20.0 16.6 78 2.4 SW 15 20 8 11 1016.7 1016.7 14.4
23/03:30am 20.8 20.2 16.6 77 2.5 SW 15 28 8 15 1016.7 1016.7 14.4
23/03:00am 20.7 20.7 17.1 80 2.2 SW 13 20 7 11 1016.8 1016.8 14.4
23/02:30am 20.8 20.0 17.0 79 2.3 SW 17 32 9 17 1017.0 1017.0 14.4
23/02:00am 21.0 20.5 17.0 78 2.4 SW 15 24 8 13 1017.0 1017.0 14.4
23/01:30am 20.8 21.8 17.8 83 1.9 SW 9 13 5 7 1017.3 1017.3 14.4
23/01:00am 20.9 21.4 18.3 85 1.6 SW 13 24 7 13 1017.5 1017.5 14.4
23/12:30am 21.1 20.9 18.5 85 1.6 SSW 17 26 9 14 1017.4 1017.4 14.4
23/12:00am 21.2 20.7 18.6 85 1.6 SSW 19 32 10 17 1017.1 1017.1 14.4
 
Date/Time
EDT
Temp
°C
App
Temp
°C
Dew
Point
°C
Rel
Hum
%
Delta-T
°C
Wind Press
QNH
hPa
Press
MSL
hPa
Rain since
9am
mm
Dir  Spd
km/h
Gust
km/h
Spd
kts
Gust
kts
22/11:30pm 21.3 20.2 18.7 85 1.6 S 22 30 12 16 1017.0 1017.0 14.4
22/11:00pm 21.6 21.1 18.6 83 1.9 SSW 19 28 10 15 1017.1 1017.1 14.4
22/10:56pm 21.6 21.3 18.2 81 2.1 SSW 17 28 9 15 1017.1 1017.1 14.4
22/10:30pm 21.7 22.5 19.1 85 1.6 SSW 13 20 7 11 1017.0 1017.0 14.4
22/10:16pm 21.7 21.8 19.1 85 1.6 S 17 28 9 15 1016.8 1016.8 14.4
22/10:11pm 21.7 21.3 18.9 84 1.8 SSW 19 32 10 17 1016.7 1016.7 14.4
22/10:00pm 21.4 21.0 19.0 86 1.5 S 19 30 10 16 1016.7 1016.7 14.4
22/09:46pm 21.5 22.6 19.6 89 1.2 S 13 24 7 13 1016.4 1016.4 14.4
22/09:30pm 21.4 23.0 20.0 92 0.9 SSW 11 15 6 8 1016.2 1016.2 14.4
22/09:05pm 21.2 21.9 20.4 95 0.5 S 17 20 9 11 1015.7 1015.7 14.4
22/09:00pm 21.3 22.5 20.6 96 0.5 SSE 15 22 8 12 1015.6 1015.6 14.4
22/08:51pm 21.4 22.6 20.6 95 0.5 SSE 15 24 8 13 1015.4 1015.4 14.4
22/08:30pm 21.5 22.0 20.8 96 0.5 SSE 19 24 10 13 1015.0 1015.0 14.4
22/08:00pm 21.8 21.8 21.0 95 0.5 S 22 32 12 17 1014.7 1014.7 14.4
22/07:30pm 22.0 22.2 20.6 92 0.9 SSE 20 35 11 19 1014.3 1014.3 14.4
22/07:00pm 21.8 24.5 20.6 93 0.8 ESE 7 9 4 5 1013.5 1013.5 14.4
22/06:30pm 21.6 24.0 20.8 95 0.5 SE 9 15 5 8 1013.1 1013.1 14.2
22/06:00pm 21.7 24.4 21.4 98 0.2 SW 9 15 5 8 1012.8 1012.8 14.2
22/05:30pm 21.1 22.9 21.1 100 0.0 WNW 13 19 7 10 1012.2 1012.2 14.2
22/05:00pm 21.2 23.4 21.2 100 0.0 NE 11 17 6 9 1012.0 1012.0 14.2
22/04:47pm 21.0 23.5 21.0 100 0.0 N 9 17 5 9 1012.5 1012.5 14.2
22/04:30pm 20.6 22.8 20.4 99 0.1 ESE 9 24 5 13 1012.8 1012.8 14.0
22/04:20pm 21.3 18.4 20.1 93 0.8 WSW 35 63 19 34 1013.7 1013.7 7.6
22/04:17pm 21.9 19.6 19.3 85 1.7 WSW 30 63 16 34 1013.9 1013.9 2.4
22/04:14pm 25.3 25.4 19.9 72 3.5 SSW 19 59 10 32 1013.1 1013.1 0.0
22/04:00pm 26.5 27.8 19.4 65 4.6 SE 11 19 6 10 1011.0 1011.0 0.0
22/03:30pm 27.5 29.0 21.3 69 4.1 ESE 15 22 8 12 1010.5 1010.5 0.0
22/03:00pm 27.3 29.1 21.1 69 4.1 ESE 13 19 7 10 1011.0 1011.0 0.0
22/02:30pm 28.8 31.4 23.9 75 3.4 E 17 22 9 12 1011.0 1011.0 0.0
22/02:00pm 28.5 30.0 23.0 72 3.8 E 20 28 11 15 1011.2 1011.2 0.0
22/01:30pm 29.2 30.7 22.7 68 4.4 ESE 19 26 10 14 1011.3 1011.3 0.0
22/01:00pm 29.6 31.3 22.3 65 5.0 ESE 17 24 9 13 1011.3 1011.3 0.0
22/12:30pm 29.7 32.4 22.9 67 4.6 NE 13 19 7 10 1011.5 1011.5 0.0
22/12:00pm 29.7 33.9 23.2 68 4.5 E 6 11 3 6 1011.6 1011.6 0.0
22/11:30am 28.4 31.3 21.7 67 4.5 NE 9 13 5 7 1011.9 1011.9 0.0
22/11:00am 28.7 32.2 22.9 71 4.0 NE 9 13 5 7 1012.1 1012.1 0.0
22/10:30am 27.0 29.9 22.4 76 3.1 NE 11 17 6 9 1012.2 1012.2 0.0
22/10:00am 26.2 30.2 22.1 78 2.7 SSW 4 11 2 6 1012.2 1012.2 0.0
22/09:30am 25.0 28.9 22.5 86 1.7 S 6 13 3 7 1012.4 1012.4 0.0
22/09:00am 24.5 28.0 22.8 90 1.1 SSE 9 13 5 7 1012.2 1012.2 6.2
22/08:30am 23.8 27.3 22.8 94 0.7 ENE 9 13 5 7 1011.9 1011.9 6.2
22/08:00am 23.3 26.1 21.6 90 1.1 ESE 9 15 5 8 1011.2 1011.2 6.2
22/07:30am 24.5 26.6 21.0 81 2.3 N 11 17 6 9 1010.7 1010.7 6.2
22/07:00am 22.6 25.4 20.9 90 1.1 E 7 13 4 7 1010.3 1010.3 6.2
22/06:30am 22.6 26.0 20.9 90 1.1 SSW 4 7 2 4 1009.9 1009.9 6.2
22/06:00am 22.8 25.2 20.9 89 1.2 SSW 9 13 5 7 1009.6 1009.6 6.2
22/05:30am 21.3 24.4 21.0 98 0.2 E 6 9 3 5 1009.5 1009.5 6.2
22/05:00am 21.6 25.5 21.1 97 0.3 WNW 2 7 1 4 1009.8 1009.8 6.2
22/04:30am 21.7 24.7 20.9 95 0.5 SSW 6 9 3 5 1009.8 1009.8 6.2
22/04:00am 21.8 25.7 21.1 96 0.5 S 2 7 1 4 1009.9 1009.9 6.2
22/03:30am 22.4 26.0 21.2 93 0.8 SSW 4 7 2 4 1010.1 1010.1 6.2
22/03:00am 22.4 25.6 21.6 95 0.5 ESE 7 11 4 6 1010.5 1010.5 6.2
22/02:30am 22.9 26.2 21.4 91 1.0 SW 6 11 3 6 1010.6 1010.6 6.2
22/02:00am 23.5 26.8 21.8 90 1.1 W 7 13 4 7 1010.9 1010.9 6.2
22/01:30am 22.5 26.6 21.5 94 0.7 W 2 7 1 4 1011.3 1011.3 6.2
22/01:00am 22.6 26.1 21.8 95 0.5 E 6 11 3 6 1011.4 1011.4 6.2
22/12:30am 23.5 26.3 21.6 89 1.3 SSW 9 13 5 7 1011.6 1011.6 6.2
22/12:12am 24.3 26.9 22.0 87 1.5 N 11 24 6 13 1011.7 1011.7 6.2
22/12:00am 23.3 26.8 21.9 92 0.9 SSE 6 9 3 5 1011.6 1011.6 6.2
 
Date/Time
EDT
Temp
°C
App
Temp
°C
Dew
Point
°C
Rel
Hum
%
Delta-T
°C
Wind Press
QNH
hPa
Press
MSL
hPa
Rain since
9am
mm
Dir  Spd
km/h
Gust
km/h
Spd
kts
Gust
kts
21/11:30pm 23.2 26.7 21.8 92 0.9 WNW 6 7 3 4 1012.4 1012.4 6.2
21/11:23pm 23.6 27.1 21.9 90 1.1 WNW 6 11 3 6 1012.5 1012.5 6.2
21/11:00pm 22.1 25.2 21.4 96 0.5 W 7 11 4 6 1012.6 1012.6 6.2
21/10:30pm 21.5 24.5 21.3 99 0.1 WSW 7 15 4 8 1012.7 1012.7 6.2
21/10:00pm 21.4 24.4 21.2 99 0.1 WNW 7 13 4 7 1013.0 1013.0 6.2
21/09:30pm 21.5 23.4 21.3 99 0.1 W 13 17 7 9 1012.9 1012.9 6.2
21/09:00pm 21.7 24.1 21.5 99 0.1 W 11 11 6 6 1012.8 1012.8 6.2
21/08:30pm 22.0 25.8 21.7 98 0.2 NW 4 7 2 4 1012.5 1012.5 6.2
21/08:00pm 22.5 26.0 22.2 98 0.2 NW 7 7 4 4 1012.2 1012.2 6.2
21/07:30pm 22.6 25.6 21.9 96 0.5 NNW 9 13 5 7 1012.2 1012.2 6.2
21/07:00pm 23.3 27.3 23.1 99 0.1 NE 7 13 4 7 1011.7 1011.7 6.0
21/06:48pm 23.4 27.6 23.4 100 0.0 NW 7 11 4 6 1012.3 1012.3 5.8
21/06:36pm 23.4 27.6 23.4 100 0.0 NNW 7 9 4 5 1012.5 1012.5 5.2
21/06:32pm 23.4 27.6 23.4 100 0.0 N 7 9 4 5 1012.6 1012.6 5.2
21/06:30pm 23.3 27.4 23.3 100 0.0 N 7 11 4 6 1012.6 1012.6 5.2
21/06:22pm 23.3 27.0 23.3 100 0.0 NNE 9 15 5 8 1012.7 1012.7 5.2
21/06:10pm 23.3 24.9 23.3 100 0.0 ENE 20 26 11 14 1012.7 1012.7 4.6
21/06:04pm 23.5 25.7 23.3 99 0.1 ENE 17 26 9 14 1012.2 1012.2 3.2
21/06:00pm 23.5 26.5 23.3 99 0.1 E 13 17 7 9 1012.5 1012.5 3.0
21/05:30pm 23.5 28.4 23.0 97 0.3 ENE 2 6 1 3 1012.8 1012.8 2.6
21/05:29pm 23.4 28.2 22.9 97 0.3 ENE 2 6 1 3 1012.8 1012.8 2.6
21/05:14pm 23.6 27.7 23.3 98 0.2 SE 7 9 4 5 1012.2 1012.2 2.6
21/05:00pm 23.7 27.0 23.2 97 0.3 ENE 11 13 6 7 1012.6 1012.6 2.6
21/04:59pm 23.7 27.0 23.2 97 0.3 ENE 11 13 6 7 1012.6 1012.6 2.4
21/04:30pm 24.1 27.8 23.2 95 0.6 ENE 9 11 5 6 1012.9 1012.9 0.8
21/04:00pm 24.2 27.5 22.6 91 1.1 ENE 9 11 5 6 1012.6 1012.6 0.2
21/03:38pm 24.4 27.3 22.5 89 1.3 ENE 11 15 6 8 1012.6 1012.6 0.0
21/03:30pm 24.7 27.3 22.6 88 1.4 NE 13 15 7 8 1012.6 1012.6 0.0
21/03:00pm 24.8 27.2 22.9 89 1.3 ENE 15 19 8 10 1012.7 1012.7 0.0
21/02:52pm 24.9 26.9 23.0 89 1.3 ENE 17 20 9 11 1012.8 1012.8 0.0
21/02:30pm 24.8 26.5 22.3 86 1.7 NE 17 20 9 11 1013.1 1013.1 0.0
21/02:04pm 24.9 26.6 22.4 86 1.7 NE 17 20 9 11 1013.3 1013.3 0.0
21/02:00pm 25.0 26.8 22.5 86 1.7 NE 17 20 9 11 1013.3 1013.3 0.0
21/01:30pm 25.4 27.3 22.7 85 1.8 NE 17 20 9 11 1013.4 1013.4 0.0
21/01:00pm 25.4 26.9 22.7 85 1.8 ENE 19 24 10 13 1013.8 1013.8 0.0
21/12:54pm 25.5 26.8 22.6 84 2.0 ENE 20 24 11 13 1013.8 1013.8 0.0
21/12:30pm 24.9 26.6 22.4 86 1.7 NE 17 20 9 11 1014.0 1014.0 0.0
21/12:00pm 25.0 27.1 23.1 89 1.3 NE 17 20 9 11 1014.6 1014.6 0.0
21/11:30am 25.2 27.8 23.3 89 1.3 NE 15 19 8 10 1015.1 1015.1 0.0
21/11:00am 24.7 27.8 22.8 89 1.3 NE 11 13 6 7 1015.4 1015.4 0.0
21/10:30am 24.9 27.8 22.4 86 1.7 NE 11 15 6 8 1015.6 1015.6 0.0
21/10:00am 24.7 28.0 22.6 88 1.4 ENE 9 11 5 6 1015.7 1015.7 0.0
21/09:30am 23.9 27.8 22.5 92 0.9 ENE 6 9 3 5 1015.8 1015.8 0.0
21/09:00am 23.5 28.4 22.3 93 0.8 CALM 0 0 0 0 1015.7 1015.7 0.0
21/08:30am 23.2 28.3 22.7 97 0.3 CALM 0 0 0 0 1015.7 1015.7 0.0
21/08:00am 22.7 27.7 22.5 99 0.1 CALM 0 0 0 0 1015.5 1015.5 0.0
21/07:30am 22.6 27.7 22.6 100 0.0 CALM 0 0 0 0 1015.4 1015.4 0.0
21/07:00am 22.3 27.1 22.1 99 0.1 CALM 0 0 0 0 1015.3 1015.3 0.0
21/06:42am 22.2 26.9 22.0 99 0.1 CALM 0 2 0 1 1015.1 1015.1 0.0
21/06:40am 22.2 26.9 22.0 99 0.1 CALM 0 2 0 1 1015.1 1015.1 0.0
21/06:30am 22.2 26.9 22.0 99 0.1 CALM 0 0 0 0 1015.0 1015.0 0.0
21/06:13am 22.3 27.1 22.1 99 0.1 CALM 0 0 0 0 1014.9 1014.9 0.0
21/06:00am 22.3 25.9 22.1 99 0.1 S 6 9 3 5 1014.8 1014.8 0.0
21/05:30am 22.5 26.2 22.3 99 0.1 SE 6 6 3 3 1014.6 1014.6 0.0
21/05:06am 22.4 26.1 22.2 99 0.1 SE 6 6 3 3 1014.5 1014.5 0.0
21/05:00am 22.4 26.1 22.2 99 0.1 SE 6 6 3 3 1014.5 1014.5 0.0
21/04:30am 22.5 27.3 22.2 98 0.2 CALM 0 0 0 0 1014.7 1014.7 0.0
21/04:00am 22.8 27.6 22.1 96 0.5 CALM 0 0 0 0 1015.0 1015.0 0.0
21/03:30am 22.9 27.0 22.2 96 0.5 SE 4 7 2 4 1015.1 1015.1 0.0
21/03:00am 22.9 26.4 22.2 96 0.5 E 7 11 4 6 1015.3 1015.3 0.0
21/02:30am 23.0 26.8 22.7 98 0.2 ESE 7 7 4 4 1015.8 1015.8 0.0
21/02:00am 22.8 27.4 22.5 98 0.2 SSE 2 7 1 4 1015.8 1015.8 0.0
21/01:30am 22.9 28.0 22.6 98 0.2 CALM 0 2 0 1 1015.8 1015.8 0.0

Other Formats:

Comma delimited format used in spreadsheet applications
http://www.bom.gov.au/fwo/IDN60801/IDN60801.95748.axf

JavaScript Object Notation format (JSON) in row-major order
http://www.bom.gov.au/fwo/IDN60801/IDN60801.95748.json